sensor_id;sensor_type;location;lat;lon;timestamp;temperature;humidity
70366;DHT22;57787;48.216;12.396;2023-03-14T00:00:12;8.60;76.20
70366;DHT22;57787;48.216;12.396;2023-03-14T00:02:39;8.50;75.70
70366;DHT22;57787;48.216;12.396;2023-03-14T00:05:06;8.40;76.00
70366;DHT22;57787;48.216;12.396;2023-03-14T00:07:34;8.40;76.20
70366;DHT22;57787;48.216;12.396;2023-03-14T00:10:03;8.30;76.70
70366;DHT22;57787;48.216;12.396;2023-03-14T00:12:31;8.30;76.70
70366;DHT22;57787;48.216;12.396;2023-03-14T00:14:58;8.30;77.00
70366;DHT22;57787;48.216;12.396;2023-03-14T00:17:26;8.20;76.40
70366;DHT22;57787;48.216;12.396;2023-03-14T00:19:53;8.10;76.80
70366;DHT22;57787;48.216;12.396;2023-03-14T00:22:20;8.00;77.60
70366;DHT22;57787;48.216;12.396;2023-03-14T00:24:47;8.00;77.70
70366;DHT22;57787;48.216;12.396;2023-03-14T00:27:14;7.90;77.50
70366;DHT22;57787;48.216;12.396;2023-03-14T00:29:42;7.90;78.90
70366;DHT22;57787;48.216;12.396;2023-03-14T00:32:08;7.90;79.20
70366;DHT22;57787;48.216;12.396;2023-03-14T00:34:35;7.90;79.40
70366;DHT22;57787;48.216;12.396;2023-03-14T00:37:02;7.90;79.70
70366;DHT22;57787;48.216;12.396;2023-03-14T00:39:28;7.80;79.70
70366;DHT22;57787;48.216;12.396;2023-03-14T00:41:55;7.70;79.30
70366;DHT22;57787;48.216;12.396;2023-03-14T00:44:22;7.70;79.70
70366;DHT22;57787;48.216;12.396;2023-03-14T00:46:49;7.70;80.30
70366;DHT22;57787;48.216;12.396;2023-03-14T00:49:16;7.60;80.20
70366;DHT22;57787;48.216;12.396;2023-03-14T00:51:42;7.60;81.00
70366;DHT22;57787;48.216;12.396;2023-03-14T00:54:09;7.60;80.60
70366;DHT22;57787;48.216;12.396;2023-03-14T00:56:36;7.60;80.60
70366;DHT22;57787;48.216;12.396;2023-03-14T00:59:03;7.60;80.80
70366;DHT22;57787;48.216;12.396;2023-03-14T01:01:29;7.60;80.80
70366;DHT22;57787;48.216;12.396;2023-03-14T01:03:56;7.60;81.30
70366;DHT22;57787;48.216;12.396;2023-03-14T01:06:26;7.60;80.70
70366;DHT22;57787;48.216;12.396;2023-03-14T01:08:53;7.60;81.10
70366;DHT22;57787;48.216;12.396;2023-03-14T01:13:47;7.60;81.10
70366;DHT22;57787;48.216;12.396;2023-03-14T01:16:15;7.60;81.00
70366;DHT22;57787;48.216;12.396;2023-03-14T01:18:42;7.50;81.00
70366;DHT22;57787;48.216;12.396;2023-03-14T01:21:14;7.50;81.10
70366;DHT22;57787;48.216;12.396;2023-03-14T01:23:42;7.60;80.90
70366;DHT22;57787;48.216;12.396;2023-03-14T01:26:12;7.60;81.30
70366;DHT22;57787;48.216;12.396;2023-03-14T01:28:39;7.60;81.50
70366;DHT22;57787;48.216;12.396;2023-03-14T01:31:07;7.60;81.90
70366;DHT22;57787;48.216;12.396;2023-03-14T01:33:34;7.70;82.20
70366;DHT22;57787;48.216;12.396;2023-03-14T01:36:03;7.70;82.00
70366;DHT22;57787;48.216;12.396;2023-03-14T01:38:30;7.70;81.80
70366;DHT22;57787;48.216;12.396;2023-03-14T01:40:57;7.80;81.80
70366;DHT22;57787;48.216;12.396;2023-03-14T01:43:24;7.80;82.50
70366;DHT22;57787;48.216;12.396;2023-03-14T01:48:25;7.90;82.70
70366;DHT22;57787;48.216;12.396;2023-03-14T01:50:52;8.00;82.30
70366;DHT22;57787;48.216;12.396;2023-03-14T01:53:19;8.00;82.60
70366;DHT22;57787;48.216;12.396;2023-03-14T01:55:48;8.00;82.90
70366;DHT22;57787;48.216;12.396;2023-03-14T01:58:14;8.10;83.30
70366;DHT22;57787;48.216;12.396;2023-03-14T02:00:43;8.10;83.90
70366;DHT22;57787;48.216;12.396;2023-03-14T02:03:11;8.20;84.00
70366;DHT22;57787;48.216;12.396;2023-03-14T02:05:39;8.20;84.50
70366;DHT22;57787;48.216;12.396;2023-03-14T02:08:08;8.30;84.80
70366;DHT22;57787;48.216;12.396;2023-03-14T02:10:40;8.30;84.70
70366;DHT22;57787;48.216;12.396;2023-03-14T02:13:08;8.40;85.40
70366;DHT22;57787;48.216;12.396;2023-03-14T02:15:35;8.40;85.50
70366;DHT22;57787;48.216;12.396;2023-03-14T02:18:02;8.50;86.10
70366;DHT22;57787;48.216;12.396;2023-03-14T02:22:59;8.60;86.50
70366;DHT22;57787;48.216;12.396;2023-03-14T02:25:39;8.70;87.50
70366;DHT22;57787;48.216;12.396;2023-03-14T02:28:07;8.70;87.60
70366;DHT22;57787;48.216;12.396;2023-03-14T02:30:33;8.80;87.70
70366;DHT22;57787;48.216;12.396;2023-03-14T02:33:03;8.80;88.20
70366;DHT22;57787;48.216;12.396;2023-03-14T02:35:35;8.90;88.60
70366;DHT22;57787;48.216;12.396;2023-03-14T02:40:44;9.00;89.10
70366;DHT22;57787;48.216;12.396;2023-03-14T02:43:11;9.00;88.70
70366;DHT22;57787;48.216;12.396;2023-03-14T02:48:09;9.10;89.30
70366;DHT22;57787;48.216;12.396;2023-03-14T02:50:37;9.10;89.30
70366;DHT22;57787;48.216;12.396;2023-03-14T02:53:04;9.10;89.40
70366;DHT22;57787;48.216;12.396;2023-03-14T02:55:30;9.10;89.50
70366;DHT22;57787;48.216;12.396;2023-03-14T02:57:57;9.10;89.40
70366;DHT22;57787;48.216;12.396;2023-03-14T03:00:24;9.10;89.30
70366;DHT22;57787;48.216;12.396;2023-03-14T03:02:51;9.10;89.00
70366;DHT22;57787;48.216;12.396;2023-03-14T03:05:18;9.20;89.00
70366;DHT22;57787;48.216;12.396;2023-03-14T03:07:45;9.10;88.60
70366;DHT22;57787;48.216;12.396;2023-03-14T03:10:11;9.10;88.50
70366;DHT22;57787;48.216;12.396;2023-03-14T03:12:38;9.10;88.40
70366;DHT22;57787;48.216;12.396;2023-03-14T03:15:05;9.10;88.40
70366;DHT22;57787;48.216;12.396;2023-03-14T03:17:32;9.10;87.90
70366;DHT22;57787;48.216;12.396;2023-03-14T03:19:59;9.10;88.00
70366;DHT22;57787;48.216;12.396;2023-03-14T03:22:26;9.00;87.90
70366;DHT22;57787;48.216;12.396;2023-03-14T03:24:53;9.00;87.90
70366;DHT22;57787;48.216;12.396;2023-03-14T03:27:19;9.00;87.90
70366;DHT22;57787;48.216;12.396;2023-03-14T03:29:46;9.00;88.00
70366;DHT22;57787;48.216;12.396;2023-03-14T03:32:14;9.00;88.10
70366;DHT22;57787;48.216;12.396;2023-03-14T03:34:40;9.00;87.70
70366;DHT22;57787;48.216;12.396;2023-03-14T03:37:07;9.00;87.60
70366;DHT22;57787;48.216;12.396;2023-03-14T03:39:34;9.00;87.50
70366;DHT22;57787;48.216;12.396;2023-03-14T03:42:01;9.00;87.40
70366;DHT22;57787;48.216;12.396;2023-03-14T03:44:27;9.00;87.40
70366;DHT22;57787;48.216;12.396;2023-03-14T03:46:54;8.90;87.20
70366;DHT22;57787;48.216;12.396;2023-03-14T03:49:21;9.00;87.00
70366;DHT22;57787;48.216;12.396;2023-03-14T03:51:50;9.00;86.70
70366;DHT22;57787;48.216;12.396;2023-03-14T03:54:18;9.00;86.20
70366;DHT22;57787;48.216;12.396;2023-03-14T03:56:45;9.10;86.10
70366;DHT22;57787;48.216;12.396;2023-03-14T03:59:12;9.00;85.60
70366;DHT22;57787;48.216;12.396;2023-03-14T04:01:38;9.10;85.30
70366;DHT22;57787;48.216;12.396;2023-03-14T04:04:06;9.10;85.30
70366;DHT22;57787;48.216;12.396;2023-03-14T04:06:33;9.10;84.70
70366;DHT22;57787;48.216;12.396;2023-03-14T04:09:00;9.10;84.60
70366;DHT22;57787;48.216;12.396;2023-03-14T04:11:27;9.10;85.10
70366;DHT22;57787;48.216;12.396;2023-03-14T04:13:53;9.10;85.50
70366;DHT22;57787;48.216;12.396;2023-03-14T04:16:21;9.10;85.70
70366;DHT22;57787;48.216;12.396;2023-03-14T04:18:48;9.10;85.90
70366;DHT22;57787;48.216;12.396;2023-03-14T04:21:15;9.10;86.10
70366;DHT22;57787;48.216;12.396;2023-03-14T04:23:42;9.10;86.10
70366;DHT22;57787;48.216;12.396;2023-03-14T04:26:08;9.10;86.20
70366;DHT22;57787;48.216;12.396;2023-03-14T04:28:35;9.10;86.40
70366;DHT22;57787;48.216;12.396;2023-03-14T04:31:15;9.00;86.60
70366;DHT22;57787;48.216;12.396;2023-03-14T04:33:42;9.00;86.90
70366;DHT22;57787;48.216;12.396;2023-03-14T04:36:11;9.00;86.90
70366;DHT22;57787;48.216;12.396;2023-03-14T04:38:39;9.00;87.00
70366;DHT22;57787;48.216;12.396;2023-03-14T04:41:06;9.00;87.00
70366;DHT22;57787;48.216;12.396;2023-03-14T04:43:33;9.00;87.40
70366;DHT22;57787;48.216;12.396;2023-03-14T04:45:59;9.00;87.30
70366;DHT22;57787;48.216;12.396;2023-03-14T04:48:26;9.00;87.50
70366;DHT22;57787;48.216;12.396;2023-03-14T04:50:53;9.00;87.60
70366;DHT22;57787;48.216;12.396;2023-03-14T04:53:20;9.00;87.60
70366;DHT22;57787;48.216;12.396;2023-03-14T04:55:50;9.00;87.50
70366;DHT22;57787;48.216;12.396;2023-03-14T04:58:18;9.00;87.50
70366;DHT22;57787;48.216;12.396;2023-03-14T05:00:45;9.00;87.40
70366;DHT22;57787;48.216;12.396;2023-03-14T05:03:14;9.00;87.40
70366;DHT22;57787;48.216;12.396;2023-03-14T05:05:41;9.00;87.30
70366;DHT22;57787;48.216;12.396;2023-03-14T05:08:07;9.00;87.10
70366;DHT22;57787;48.216;12.396;2023-03-14T05:10:36;9.00;87.20
70366;DHT22;57787;48.216;12.396;2023-03-14T05:13:03;9.00;87.20
70366;DHT22;57787;48.216;12.396;2023-03-14T05:15:30;9.00;87.30
70366;DHT22;57787;48.216;12.396;2023-03-14T05:17:56;9.00;87.10
70366;DHT22;57787;48.216;12.396;2023-03-14T05:20:23;9.00;87.10
70366;DHT22;57787;48.216;12.396;2023-03-14T05:22:50;9.00;86.90
70366;DHT22;57787;48.216;12.396;2023-03-14T05:25:17;9.00;86.80
70366;DHT22;57787;48.216;12.396;2023-03-14T05:27:43;8.90;86.80
70366;DHT22;57787;48.216;12.396;2023-03-14T05:30:11;9.00;86.80
70366;DHT22;57787;48.216;12.396;2023-03-14T05:32:39;8.90;86.90
70366;DHT22;57787;48.216;12.396;2023-03-14T05:35:07;9.00;86.70
70366;DHT22;57787;48.216;12.396;2023-03-14T05:37:33;8.90;86.70
70366;DHT22;57787;48.216;12.396;2023-03-14T05:40:01;8.90;86.70
70366;DHT22;57787;48.216;12.396;2023-03-14T05:42:27;8.90;86.60
70366;DHT22;57787;48.216;12.396;2023-03-14T05:44:55;8.90;86.50
70366;DHT22;57787;48.216;12.396;2023-03-14T05:47:21;8.80;86.10
70366;DHT22;57787;48.216;12.396;2023-03-14T05:49:48;8.80;85.90
70366;DHT22;57787;48.216;12.396;2023-03-14T05:52:15;8.80;85.80
70366;DHT22;57787;48.216;12.396;2023-03-14T05:54:41;8.80;85.50
70366;DHT22;57787;48.216;12.396;2023-03-14T05:57:08;8.80;85.20
70366;DHT22;57787;48.216;12.396;2023-03-14T05:59:35;8.80;85.10
70366;DHT22;57787;48.216;12.396;2023-03-14T06:02:02;8.80;85.00
70366;DHT22;57787;48.216;12.396;2023-03-14T06:04:28;8.80;84.90
70366;DHT22;57787;48.216;12.396;2023-03-14T06:06:55;8.80;85.00
70366;DHT22;57787;48.216;12.396;2023-03-14T06:09:23;8.80;84.90
70366;DHT22;57787;48.216;12.396;2023-03-14T06:11:50;8.80;84.60
70366;DHT22;57787;48.216;12.396;2023-03-14T06:14:18;8.80;84.70
70366;DHT22;57787;48.216;12.396;2023-03-14T06:16:45;8.80;84.70
70366;DHT22;57787;48.216;12.396;2023-03-14T06:19:11;8.80;84.50
70366;DHT22;57787;48.216;12.396;2023-03-14T06:21:38;8.80;84.40
70366;DHT22;57787;48.216;12.396;2023-03-14T06:24:05;8.80;84.10
70366;DHT22;57787;48.216;12.396;2023-03-14T06:26:32;8.80;84.40
70366;DHT22;57787;48.216;12.396;2023-03-14T06:29:00;8.80;84.50
70366;DHT22;57787;48.216;12.396;2023-03-14T06:31:30;8.80;84.30
70366;DHT22;57787;48.216;12.396;2023-03-14T06:33:57;8.80;84.10
70366;DHT22;57787;48.216;12.396;2023-03-14T06:36:24;8.80;84.00
70366;DHT22;57787;48.216;12.396;2023-03-14T06:38:50;8.80;83.90
70366;DHT22;57787;48.216;12.396;2023-03-14T06:41:17;8.80;83.60
70366;DHT22;57787;48.216;12.396;2023-03-14T06:43:46;8.80;83.20
70366;DHT22;57787;48.216;12.396;2023-03-14T06:46:13;8.80;83.20
70366;DHT22;57787;48.216;12.396;2023-03-14T06:48:42;8.80;83.40
70366;DHT22;57787;48.216;12.396;2023-03-14T06:51:09;8.80;83.00
70366;DHT22;57787;48.216;12.396;2023-03-14T06:53:36;8.80;83.20
70366;DHT22;57787;48.216;12.396;2023-03-14T06:56:03;8.80;83.20
70366;DHT22;57787;48.216;12.396;2023-03-14T06:58:32;8.80;83.20
70366;DHT22;57787;48.216;12.396;2023-03-14T07:00:58;8.80;83.00
70366;DHT22;57787;48.216;12.396;2023-03-14T07:03:27;8.80;82.90
70366;DHT22;57787;48.216;12.396;2023-03-14T07:05:54;8.90;82.70
70366;DHT22;57787;48.216;12.396;2023-03-14T07:08:21;8.90;82.80
70366;DHT22;57787;48.216;12.396;2023-03-14T07:10:48;9.00;82.50
70366;DHT22;57787;48.216;12.396;2023-03-14T07:13:15;9.00;82.30
70366;DHT22;57787;48.216;12.396;2023-03-14T07:15:42;9.10;82.50
70366;DHT22;57787;48.216;12.396;2023-03-14T07:18:08;9.10;82.40
70366;DHT22;57787;48.216;12.396;2023-03-14T07:20:35;9.20;82.10
70366;DHT22;57787;48.216;12.396;2023-03-14T07:23:02;9.20;82.30
70366;DHT22;57787;48.216;12.396;2023-03-14T07:25:29;9.30;82.50
70366;DHT22;57787;48.216;12.396;2023-03-14T07:27:56;9.30;82.20
70366;DHT22;57787;48.216;12.396;2023-03-14T07:30:23;9.30;81.60
70366;DHT22;57787;48.216;12.396;2023-03-14T07:32:49;9.30;81.50
70366;DHT22;57787;48.216;12.396;2023-03-14T07:35:18;9.30;81.20
70366;DHT22;57787;48.216;12.396;2023-03-14T07:37:44;9.20;80.80
70366;DHT22;57787;48.216;12.396;2023-03-14T07:40:12;9.30;80.90
70366;DHT22;57787;48.216;12.396;2023-03-14T07:42:42;9.30;80.80
70366;DHT22;57787;48.216;12.396;2023-03-14T07:45:09;9.20;81.00
70366;DHT22;57787;48.216;12.396;2023-03-14T07:47:37;9.20;81.00
70366;DHT22;57787;48.216;12.396;2023-03-14T07:50:04;9.20;81.00
70366;DHT22;57787;48.216;12.396;2023-03-14T07:52:31;9.30;81.30
70366;DHT22;57787;48.216;12.396;2023-03-14T07:54:58;9.30;81.50
70366;DHT22;57787;48.216;12.396;2023-03-14T07:57:26;9.20;81.50
70366;DHT22;57787;48.216;12.396;2023-03-14T07:59:53;9.20;81.40
70366;DHT22;57787;48.216;12.396;2023-03-14T08:02:20;9.30;81.30
70366;DHT22;57787;48.216;12.396;2023-03-14T08:04:50;9.30;81.30
70366;DHT22;57787;48.216;12.396;2023-03-14T08:07:17;9.30;81.40
70366;DHT22;57787;48.216;12.396;2023-03-14T08:09:44;9.30;81.50
70366;DHT22;57787;48.216;12.396;2023-03-14T08:12:10;9.30;81.50
70366;DHT22;57787;48.216;12.396;2023-03-14T08:14:37;9.30;81.40
70366;DHT22;57787;48.216;12.396;2023-03-14T08:17:04;9.30;81.50
70366;DHT22;57787;48.216;12.396;2023-03-14T08:19:31;9.40;81.30
70366;DHT22;57787;48.216;12.396;2023-03-14T08:21:58;9.40;81.50
70366;DHT22;57787;48.216;12.396;2023-03-14T08:24:25;9.50;81.40
70366;DHT22;57787;48.216;12.396;2023-03-14T08:26:52;9.50;81.60
70366;DHT22;57787;48.216;12.396;2023-03-14T08:29:19;9.60;81.80
70366;DHT22;57787;48.216;12.396;2023-03-14T08:31:46;9.60;81.80
70366;DHT22;57787;48.216;12.396;2023-03-14T08:34:12;9.70;81.60
70366;DHT22;57787;48.216;12.396;2023-03-14T08:36:39;9.70;81.80
70366;DHT22;57787;48.216;12.396;2023-03-14T08:39:06;9.80;81.50
70366;DHT22;57787;48.216;12.396;2023-03-14T08:41:34;9.80;81.20
70366;DHT22;57787;48.216;12.396;2023-03-14T08:44:07;9.80;80.90
70366;DHT22;57787;48.216;12.396;2023-03-14T08:46:34;9.80;81.00
70366;DHT22;57787;48.216;12.396;2023-03-14T08:49:01;9.90;80.70
70366;DHT22;57787;48.216;12.396;2023-03-14T08:51:28;10.00;80.70
70366;DHT22;57787;48.216;12.396;2023-03-14T08:53:56;10.00;80.80
70366;DHT22;57787;48.216;12.396;2023-03-14T08:56:22;10.00;80.80
70366;DHT22;57787;48.216;12.396;2023-03-14T08:58:51;10.00;80.40
70366;DHT22;57787;48.216;12.396;2023-03-14T09:01:19;10.00;80.30
70366;DHT22;57787;48.216;12.396;2023-03-14T09:03:47;10.10;80.30
70366;DHT22;57787;48.216;12.396;2023-03-14T09:06:14;10.10;80.20
70366;DHT22;57787;48.216;12.396;2023-03-14T09:08:44;10.20;80.20
70366;DHT22;57787;48.216;12.396;2023-03-14T09:11:13;10.20;79.70
70366;DHT22;57787;48.216;12.396;2023-03-14T09:13:40;10.20;79.40
70366;DHT22;57787;48.216;12.396;2023-03-14T09:16:07;10.30;79.50
70366;DHT22;57787;48.216;12.396;2023-03-14T09:18:34;10.30;79.30
70366;DHT22;57787;48.216;12.396;2023-03-14T09:21:02;10.30;79.20
70366;DHT22;57787;48.216;12.396;2023-03-14T09:23:29;10.40;79.00
70366;DHT22;57787;48.216;12.396;2023-03-14T09:25:56;10.40;78.60
70366;DHT22;57787;48.216;12.396;2023-03-14T09:28:24;10.50;78.30
70366;DHT22;57787;48.216;12.396;2023-03-14T09:30:51;10.50;78.10
70366;DHT22;57787;48.216;12.396;2023-03-14T09:33:18;10.60;77.90
70366;DHT22;57787;48.216;12.396;2023-03-14T09:35:45;10.60;78.20
70366;DHT22;57787;48.216;12.396;2023-03-14T09:38:12;10.70;78.00
70366;DHT22;57787;48.216;12.396;2023-03-14T09:40:39;10.80;77.30
70366;DHT22;57787;48.216;12.396;2023-03-14T09:43:08;10.80;76.90
70366;DHT22;57787;48.216;12.396;2023-03-14T09:45:36;10.80;76.90
70366;DHT22;57787;48.216;12.396;2023-03-14T09:48:04;10.90;76.50
70366;DHT22;57787;48.216;12.396;2023-03-14T09:50:33;10.90;76.80
70366;DHT22;57787;48.216;12.396;2023-03-14T09:53:05;10.80;76.60
70366;DHT22;57787;48.216;12.396;2023-03-14T09:55:32;10.80;76.30
70366;DHT22;57787;48.216;12.396;2023-03-14T09:58:03;10.80;76.60
70366;DHT22;57787;48.216;12.396;2023-03-14T10:00:35;10.80;76.80
70366;DHT22;57787;48.216;12.396;2023-03-14T10:05:38;10.80;76.40
70366;DHT22;57787;48.216;12.396;2023-03-14T10:08:05;10.80;76.40
70366;DHT22;57787;48.216;12.396;2023-03-14T10:10:32;10.80;77.00
70366;DHT22;57787;48.216;12.396;2023-03-14T10:13:05;10.80;76.50
70366;DHT22;57787;48.216;12.396;2023-03-14T10:15:34;10.90;76.60
70366;DHT22;57787;48.216;12.396;2023-03-14T10:18:02;10.90;76.40
70366;DHT22;57787;48.216;12.396;2023-03-14T10:23:33;11.00;75.90
70366;DHT22;57787;48.216;12.396;2023-03-14T10:25:58;11.10;75.80
70366;DHT22;57787;48.216;12.396;2023-03-14T10:28:31;11.10;75.80
70366;DHT22;57787;48.216;12.396;2023-03-14T10:30:58;11.10;75.70
70366;DHT22;57787;48.216;12.396;2023-03-14T10:33:29;11.10;76.20
70366;DHT22;57787;48.216;12.396;2023-03-14T10:38:24;11.10;76.80
70366;DHT22;57787;48.216;12.396;2023-03-14T10:40:52;11.10;75.40
70366;DHT22;57787;48.216;12.396;2023-03-14T10:43:21;11.20;75.50
70366;DHT22;57787;48.216;12.396;2023-03-14T10:45:52;11.20;74.60
70366;DHT22;57787;48.216;12.396;2023-03-14T10:48:45;11.20;75.30
70366;DHT22;57787;48.216;12.396;2023-03-14T10:51:30;11.30;75.30
70366;DHT22;57787;48.216;12.396;2023-03-14T10:54:01;11.30;75.50
70366;DHT22;57787;48.216;12.396;2023-03-14T10:56:33;11.30;75.90
70366;DHT22;57787;48.216;12.396;2023-03-14T10:59:00;11.40;75.70
70366;DHT22;57787;48.216;12.396;2023-03-14T11:03:56;11.30;74.50
70366;DHT22;57787;48.216;12.396;2023-03-14T11:06:28;11.40;74.80
70366;DHT22;57787;48.216;12.396;2023-03-14T11:09:11;11.50;74.00
70366;DHT22;57787;48.216;12.396;2023-03-14T11:11:39;11.50;73.80
70366;DHT22;57787;48.216;12.396;2023-03-14T11:14:27;11.60;74.30
70366;DHT22;57787;48.216;12.396;2023-03-14T11:16:59;11.80;74.10
70366;DHT22;57787;48.216;12.396;2023-03-14T11:19:37;12.00;73.80
70366;DHT22;57787;48.216;12.396;2023-03-14T11:24:59;12.40;73.30
70366;DHT22;57787;48.216;12.396;2023-03-14T11:33:00;13.00;69.40
70366;DHT22;57787;48.216;12.396;2023-03-14T11:35:30;13.10;68.40
70366;DHT22;57787;48.216;12.396;2023-03-14T11:40:34;13.30;67.90
70366;DHT22;57787;48.216;12.396;2023-03-14T11:45:35;13.20;66.20
70366;DHT22;57787;48.216;12.396;2023-03-14T11:48:15;13.00;66.30
70366;DHT22;57787;48.216;12.396;2023-03-14T11:50:45;13.00;67.50
70366;DHT22;57787;48.216;12.396;2023-03-14T11:53:21;12.90;67.70
70366;DHT22;57787;48.216;12.396;2023-03-14T11:55:50;12.80;67.40
70366;DHT22;57787;48.216;12.396;2023-03-14T11:58:28;12.60;66.70
70366;DHT22;57787;48.216;12.396;2023-03-14T12:00:56;12.40;66.60
70366;DHT22;57787;48.216;12.396;2023-03-14T12:03:27;12.40;66.80
70366;DHT22;57787;48.216;12.396;2023-03-14T12:08:42;12.50;67.80
70366;DHT22;57787;48.216;12.396;2023-03-14T12:13:40;13.00;67.50
70366;DHT22;57787;48.216;12.396;2023-03-14T12:16:19;13.20;67.60
70366;DHT22;57787;48.216;12.396;2023-03-14T12:18:50;13.40;66.60
70366;DHT22;57787;48.216;12.396;2023-03-14T12:21:18;13.70;67.00
70366;DHT22;57787;48.216;12.396;2023-03-14T12:23:52;14.00;66.10
70366;DHT22;57787;48.216;12.396;2023-03-14T12:26:21;14.20;65.30
70366;DHT22;57787;48.216;12.396;2023-03-14T12:28:52;14.30;63.90
70366;DHT22;57787;48.216;12.396;2023-03-14T12:31:41;14.40;61.60
70366;DHT22;57787;48.216;12.396;2023-03-14T12:41:46;14.30;62.10
70366;DHT22;57787;48.216;12.396;2023-03-14T12:47:13;14.20;62.70
70366;DHT22;57787;48.216;12.396;2023-03-14T12:49:41;14.30;62.40
70366;DHT22;57787;48.216;12.396;2023-03-14T12:52:19;14.30;61.90
70366;DHT22;57787;48.216;12.396;2023-03-14T12:54:47;14.30;62.10
70366;DHT22;57787;48.216;12.396;2023-03-14T12:57:22;14.10;62.60
70366;DHT22;57787;48.216;12.396;2023-03-14T13:00:02;14.00;62.80
70366;DHT22;57787;48.216;12.396;2023-03-14T13:02:37;13.80;62.10
70366;DHT22;57787;48.216;12.396;2023-03-14T13:05:13;13.80;62.40
70366;DHT22;57787;48.216;12.396;2023-03-14T13:10:23;13.60;62.70
70366;DHT22;57787;48.216;12.396;2023-03-14T13:17:59;13.30;64.60
70366;DHT22;57787;48.216;12.396;2023-03-14T13:20:31;13.30;64.40
70366;DHT22;57787;48.216;12.396;2023-03-14T13:22:58;13.20;64.80
70366;DHT22;57787;48.216;12.396;2023-03-14T13:25:28;13.10;64.80
70366;DHT22;57787;48.216;12.396;2023-03-14T13:27:55;13.10;65.20
70366;DHT22;57787;48.216;12.396;2023-03-14T13:30:26;13.00;66.20
70366;DHT22;57787;48.216;12.396;2023-03-14T13:32:54;12.90;65.80
70366;DHT22;57787;48.216;12.396;2023-03-14T13:35:24;12.90;66.00
70366;DHT22;57787;48.216;12.396;2023-03-14T13:37:52;12.90;66.80
70366;DHT22;57787;48.216;12.396;2023-03-14T13:40:35;12.80;66.60
70366;DHT22;57787;48.216;12.396;2023-03-14T13:43:09;12.80;66.90
70366;DHT22;57787;48.216;12.396;2023-03-14T13:45:43;12.70;67.70
70366;DHT22;57787;48.216;12.396;2023-03-14T13:48:10;12.70;68.20
70366;DHT22;57787;48.216;12.396;2023-03-14T13:50:38;12.70;67.90
70366;DHT22;57787;48.216;12.396;2023-03-14T13:53:05;12.70;67.70
70366;DHT22;57787;48.216;12.396;2023-03-14T13:55:38;12.60;68.10
70366;DHT22;57787;48.216;12.396;2023-03-14T13:58:10;12.60;68.10
70366;DHT22;57787;48.216;12.396;2023-03-14T14:00:37;12.60;67.80
70366;DHT22;57787;48.216;12.396;2023-03-14T14:03:04;12.60;68.10
70366;DHT22;57787;48.216;12.396;2023-03-14T14:05:36;12.50;68.40
70366;DHT22;57787;48.216;12.396;2023-03-14T14:08:06;12.50;68.50
70366;DHT22;57787;48.216;12.396;2023-03-14T14:10:37;12.50;69.30
70366;DHT22;57787;48.216;12.396;2023-03-14T14:13:04;12.40;69.10
70366;DHT22;57787;48.216;12.396;2023-03-14T14:15:32;12.40;70.20
70366;DHT22;57787;48.216;12.396;2023-03-14T14:18:01;12.40;67.80
70366;DHT22;57787;48.216;12.396;2023-03-14T14:20:32;12.40;65.50
70366;DHT22;57787;48.216;12.396;2023-03-14T14:23:05;12.40;65.80
70366;DHT22;57787;48.216;12.396;2023-03-14T14:25:32;12.40;65.60
70366;DHT22;57787;48.216;12.396;2023-03-14T14:28:13;12.40;64.80
70366;DHT22;57787;48.216;12.396;2023-03-14T14:30:40;12.40;65.00
70366;DHT22;57787;48.216;12.396;2023-03-14T14:33:20;12.30;64.90
70366;DHT22;57787;48.216;12.396;2023-03-14T14:36:12;12.30;66.80
70366;DHT22;57787;48.216;12.396;2023-03-14T14:38:37;12.30;66.70
70366;DHT22;57787;48.216;12.396;2023-03-14T14:41:04;12.30;66.70
70366;DHT22;57787;48.216;12.396;2023-03-14T14:43:36;12.20;67.60
70366;DHT22;57787;48.216;12.396;2023-03-14T14:46:07;12.20;67.80
70366;DHT22;57787;48.216;12.396;2023-03-14T14:48:36;12.20;67.80
70366;DHT22;57787;48.216;12.396;2023-03-14T14:51:04;12.10;68.70
70366;DHT22;57787;48.216;12.396;2023-03-14T14:53:39;12.10;69.20
70366;DHT22;57787;48.216;12.396;2023-03-14T14:56:16;12.00;69.10
70366;DHT22;57787;48.216;12.396;2023-03-14T14:58:44;11.90;68.30
70366;DHT22;57787;48.216;12.396;2023-03-14T15:03:38;11.80;67.40
70366;DHT22;57787;48.216;12.396;2023-03-14T15:06:08;11.80;67.60
70366;DHT22;57787;48.216;12.396;2023-03-14T15:08:37;11.70;69.10
70366;DHT22;57787;48.216;12.396;2023-03-14T15:11:04;11.70;69.50
70366;DHT22;57787;48.216;12.396;2023-03-14T15:13:31;11.60;69.60
70366;DHT22;57787;48.216;12.396;2023-03-14T15:15:58;11.40;71.20
70366;DHT22;57787;48.216;12.396;2023-03-14T15:18:25;11.30;71.80
70366;DHT22;57787;48.216;12.396;2023-03-14T15:20:56;11.10;72.70
70366;DHT22;57787;48.216;12.396;2023-03-14T15:23:23;10.90;72.80
70366;DHT22;57787;48.216;12.396;2023-03-14T15:25:50;10.80;74.40
70366;DHT22;57787;48.216;12.396;2023-03-14T15:28:23;10.60;75.20
70366;DHT22;57787;48.216;12.396;2023-03-14T15:30:51;10.40;75.80
70366;DHT22;57787;48.216;12.396;2023-03-14T15:33:18;10.30;76.90
70366;DHT22;57787;48.216;12.396;2023-03-14T15:35:45;10.20;77.10
70366;DHT22;57787;48.216;12.396;2023-03-14T15:38:12;10.00;76.90
70366;DHT22;57787;48.216;12.396;2023-03-14T15:40:42;10.00;77.50
70366;DHT22;57787;48.216;12.396;2023-03-14T15:43:10;9.90;77.90
70366;DHT22;57787;48.216;12.396;2023-03-14T15:45:37;9.90;77.60
70366;DHT22;57787;48.216;12.396;2023-03-14T15:48:04;9.80;78.80
70366;DHT22;57787;48.216;12.396;2023-03-14T15:50:30;9.80;78.00
70366;DHT22;57787;48.216;12.396;2023-03-14T15:52:57;9.90;78.60
70366;DHT22;57787;48.216;12.396;2023-03-14T15:55:24;9.90;79.30
70366;DHT22;57787;48.216;12.396;2023-03-14T15:57:51;9.90;77.80
70366;DHT22;57787;48.216;12.396;2023-03-14T16:00:18;9.90;77.00
70366;DHT22;57787;48.216;12.396;2023-03-14T16:02:51;9.80;77.60
70366;DHT22;57787;48.216;12.396;2023-03-14T16:05:18;9.80;78.10
70366;DHT22;57787;48.216;12.396;2023-03-14T16:07:46;9.70;77.80
70366;DHT22;57787;48.216;12.396;2023-03-14T16:10:14;9.70;77.90
70366;DHT22;57787;48.216;12.396;2023-03-14T16:12:41;9.60;77.00
70366;DHT22;57787;48.216;12.396;2023-03-14T16:15:08;9.40;74.50
70366;DHT22;57787;48.216;12.396;2023-03-14T16:17:35;9.40;75.20
70366;DHT22;57787;48.216;12.396;2023-03-14T16:20:04;9.30;74.80
70366;DHT22;57787;48.216;12.396;2023-03-14T16:22:31;9.30;75.30
70366;DHT22;57787;48.216;12.396;2023-03-14T16:25:02;9.30;74.90
70366;DHT22;57787;48.216;12.396;2023-03-14T16:27:29;9.20;75.30
70366;DHT22;57787;48.216;12.396;2023-03-14T16:29:57;9.20;74.20
70366;DHT22;57787;48.216;12.396;2023-03-14T16:32:25;9.10;74.50
70366;DHT22;57787;48.216;12.396;2023-03-14T16:34:54;9.10;73.80